Time;durP1;ratioP1;P1;durP2;ratioP2;P2;SDS_P1;SDS_P2;PMS_P1;PMS_P2;Temp;Humidity;BMP_temperature;BMP_pressure;BME280_temperature;BME280_humidity;BME280_pressure;Samples;Min_cycle;Max_cycle;Signal;HPM_P1;HPM_P2
2023/03/28 00:00:58;;;;;;;4.60;3.63;;;7.30;50.30;;;;;;5063081;28;20448;-86
2023/03/28 00:03:26;;;;;;;6.10;3.10;;;7.20;50.00;;;;;;5061349;28;20452;-85
2023/03/28 00:05:56;;;;;;;7.60;3.80;;;7.30;50.80;;;;;;5052474;28;20483;-83
2023/03/28 00:08:24;;;;;;;5.00;3.40;;;7.40;50.00;;;;;;5058237;28;20468;-85
2023/03/28 00:10:51;;;;;;;4.20;3.10;;;7.40;50.10;;;;;;5046900;28;20835;-85
2023/03/28 00:13:20;;;;;;;6.33;3.77;;;7.40;50.50;;;;;;5057411;28;20526;-85
2023/03/28 00:15:47;;;;;;;4.33;3.27;;;7.20;51.20;;;;;;5041515;28;20445;-85
2023/03/28 00:18:14;;;;;;;8.90;4.77;;;7.00;51.60;;;;;;5036111;28;20551;-85
2023/03/28 00:20:43;;;;;;;5.07;2.77;;;6.90;51.80;;;;;;5057456;28;20436;-85
2023/03/28 00:23:10;;;;;;;5.43;3.10;;;7.00;51.20;;;;;;5036687;28;20443;-85
2023/03/28 00:25:40;;;;;;;6.60;3.10;;;6.90;50.20;;;;;;5030999;28;20463;-83
2023/03/28 00:28:07;;;;;;;9.10;3.70;;;6.80;50.10;;;;;;5069412;28;20460;-85
2023/03/28 00:30:34;;;;;;;6.50;3.60;;;6.70;50.50;;;;;;5050183;28;20470;-85
2023/03/28 00:33:03;;;;;;;8.87;3.37;;;6.90;51.30;;;;;;5072647;28;20814;-86
2023/03/28 00:35:31;;;;;;;4.17;3.47;;;7.00;51.00;;;;;;5043019;28;20451;-85
2023/03/28 00:37:58;;;;;;;7.63;3.40;;;7.10;50.90;;;;;;5039788;28;20468;-84
2023/03/28 00:40:26;;;;;;;7.27;3.80;;;7.20;50.00;;;;;;5046351;28;20443;-84
2023/03/28 00:42:54;;;;;;;5.33;3.40;;;7.10;50.60;;;;;;5051603;28;20455;-84
2023/03/28 00:45:22;;;;;;;4.20;2.70;;;7.20;50.80;;;;;;5040392;28;20998;-84
2023/03/28 00:47:53;;;;;;;8.50;4.20;;;7.20;51.00;;;;;;5062453;28;20456;-85
2023/03/28 00:50:26;;;;;;;4.03;3.63;;;7.30;50.50;;;;;;5029825;28;20451;-86
2023/03/28 00:52:57;;;;;;;5.43;3.50;;;7.30;50.10;;;;;;5045386;28;21055;-86
2023/03/28 00:55:28;;;;;;;4.77;3.33;;;7.30;50.60;;;;;;5025782;28;20439;-84
2023/03/28 00:57:57;;;;;;;8.23;4.43;;;7.30;50.80;;;;;;5056556;28;20538;-86
2023/03/28 01:00:25;;;;;;;5.07;3.27;;;7.40;50.50;;;;;;5031884;28;20463;-85
2023/03/28 01:02:57;;;;;;;4.20;3.30;;;7.30;49.40;;;;;;5049058;28;20450;-85
2023/03/28 01:05:26;;;;;;;5.00;3.60;;;7.30;50.20;;;;;;5032902;28;20466;-85
2023/03/28 01:07:58;;;;;;;6.73;4.70;;;7.20;50.60;;;;;;5049859;28;20448;-87
2023/03/28 01:10:25;;;;;;;3.60;3.23;;;7.20;50.70;;;;;;5058383;28;20451;-86
2023/03/28 01:12:55;;;;;;;5.47;3.10;;;6.90;51.30;;;;;;5050389;28;20483;-83
2023/03/28 01:15:23;;;;;;;5.60;3.33;;;6.80;50.80;;;;;;5046158;28;20452;-85
2023/03/28 01:17:57;;;;;;;8.57;3.53;;;6.70;50.50;;;;;;5055944;28;21078;-86
2023/03/28 01:20:51;;;;;;;9.43;3.77;;;6.70;51.60;;;;;;5059629;28;20452;-85
2023/03/28 01:23:42;;;;;;;5.37;3.40;;;6.70;52.30;;;;;;5039593;28;20531;-86
2023/03/28 01:26:39;;;;;;;6.80;3.60;;;6.90;51.50;;;;;;5047190;28;21222;-82
2023/03/28 01:29:59;;;;;;;6.20;3.83;;;7.00;50.80;;;;;;5063024;28;20459;-85
2023/03/28 01:33:01;;;;;;;8.63;3.97;;;6.90;51.30;;;;;;5033082;28;20443;-83
2023/03/28 01:35:58;;;;;;;6.70;2.90;;;6.90;51.40;;;;;;5048995;28;20432;-84
2023/03/28 01:38:32;;;;;;;7.33;3.77;;;6.70;51.90;;;;;;5046514;28;20812;-84
2023/03/28 01:41:06;;;;;;;6.57;3.90;;;6.70;52.10;;;;;;5032159;28;20571;-86
2023/03/28 01:43:48;;;;;;;6.10;3.83;;;6.80;51.40;;;;;;5066854;28;20530;-85
2023/03/28 01:46:18;;;;;;;5.93;3.17;;;6.70;51.70;;;;;;5046677;28;21766;-84
2023/03/28 01:48:56;;;;;;;7.20;3.20;;;6.70;51.70;;;;;;5046425;28;20452;-86
2023/03/28 01:51:34;;;;;;;9.03;3.70;;;6.70;51.50;;;;;;5030716;28;20451;-85
2023/03/28 01:54:09;;;;;;;4.47;3.20;;;6.80;51.50;;;;;;5059512;28;20455;-86
2023/03/28 01:56:42;;;;;;;4.30;3.67;;;6.70;51.70;;;;;;5060321;28;20475;-87
2023/03/28 01:59:16;;;;;;;3.57;2.93;;;6.60;51.80;;;;;;5048782;28;20837;-85
2023/03/28 02:02:26;;;;;;;8.83;3.90;;;6.70;51.80;;;;;;5041951;28;20532;-85
2023/03/28 02:05:00;;;;;;;7.73;3.83;;;6.70;51.60;;;;;;5048204;28;20482;-84
2023/03/28 02:07:28;;;;;;;6.90;3.30;;;6.50;52.60;;;;;;5049750;28;21016;-87
2023/03/28 02:10:07;;;;;;;4.97;3.20;;;6.50;52.70;;;;;;5070928;28;20460;-85
2023/03/28 02:12:57;;;;;;;5.50;4.17;;;6.50;53.20;;;;;;5065112;28;20451;-86
2023/03/28 02:15:46;;;;;;;6.60;3.30;;;6.60;53.10;;;;;;5060632;28;20806;-86
2023/03/28 02:18:36;;;;;;;4.77;3.20;;;6.60;52.90;;;;;;5066695;28;20467;-85
2023/03/28 02:21:42;;;;;;;5.60;3.13;;;6.70;52.50;;;;;;5002257;28;20576;-83
2023/03/28 02:24:30;;;;;;;6.30;4.40;;;6.80;52.10;;;;;;5038015;28;20456;-84
2023/03/28 02:27:21;;;;;;;4.20;2.87;;;6.70;51.60;;;;;;5045874;28;20468;-85
2023/03/28 02:30:09;;;;;;;4.23;2.53;;;6.70;52.00;;;;;;5056437;28;20506;-84
2023/03/28 02:32:49;;;;;;;5.20;3.03;;;6.80;51.60;;;;;;5078630;28;20779;-86
2023/03/28 02:35:20;;;;;;;6.20;4.17;;;6.80;51.40;;;;;;5031319;28;21267;-84
2023/03/28 02:37:54;;;;;;;6.50;3.17;;;6.80;51.70;;;;;;5058087;28;20515;-86
2023/03/28 02:40:40;;;;;;;10.00;3.23;;;6.80;51.40;;;;;;5053173;28;20447;-84
2023/03/28 02:43:47;;;;;;;7.53;3.73;;;6.70;52.00;;;;;;5038490;28;20522;-86
2023/03/28 02:46:22;;;;;;;9.10;3.60;;;6.70;51.50;;;;;;5026698;28;20472;-84
2023/03/28 02:49:27;;;;;;;11.13;3.97;;;6.70;51.50;;;;;;5029062;28;20447;-85
2023/03/28 02:52:09;;;;;;;7.83;3.60;;;6.80;51.30;;;;;;4958308;28;20437;-85
2023/03/28 02:54:44;;;;;;;8.60;3.10;;;6.80;50.80;;;;;;5039522;28;20501;-85
2023/03/28 02:57:35;;;;;;;3.63;3.07;;;6.80;50.80;;;;;;5043631;28;20464;-84
2023/03/28 03:00:11;;;;;;;5.40;3.73;;;6.70;51.10;;;;;;5054386;28;20665;-85
2023/03/28 03:02:39;;;;;;;9.23;4.57;;;6.70;51.20;;;;;;5043182;28;20455;-86
2023/03/28 03:05:08;;;;;;;10.20;4.07;;;6.50;51.50;;;;;;5045478;28;20473;-84
2023/03/28 03:07:36;;;;;;;6.47;3.47;;;6.30;52.60;;;;;;5047780;28;21238;-85
2023/03/28 03:10:04;;;;;;;6.87;3.97;;;6.30;52.10;;;;;;5042866;28;20824;-86
2023/03/28 03:12:32;;;;;;;4.97;3.80;;;6.30;52.20;;;;;;5038416;28;20452;-85
2023/03/28 03:15:00;;;;;;;13.33;4.27;;;6.30;52.30;;;;;;5024886;28;20463;-84
2023/03/28 03:17:49;;;;;;;7.20;4.20;;;6.40;52.10;;;;;;5048262;28;20452;-86
2023/03/28 03:20:24;;;;;;;9.00;3.43;;;6.40;52.20;;;;;;5054598;28;21036;-85
2023/03/28 03:22:52;;;;;;;7.27;3.50;;;6.50;52.20;;;;;;5047337;28;20855;-84
2023/03/28 03:25:19;;;;;;;10.27;4.10;;;6.50;51.70;;;;;;5052578;28;20464;-85
2023/03/28 03:28:00;;;;;;;8.00;3.70;;;6.60;51.70;;;;;;5059036;28;20490;-82
2023/03/28 03:30:28;;;;;;;7.00;4.20;;;6.60;52.00;;;;;;5021103;28;21013;-85
2023/03/28 03:33:25;;;;;;;8.50;4.97;;;6.60;51.90;;;;;;5053403;28;20540;-86
2023/03/28 03:35:58;;;;;;;10.23;5.30;;;6.50;52.00;;;;;;5044234;28;20462;-83
2023/03/28 03:38:26;;;;;;;9.17;4.17;;;6.40;52.10;;;;;;5040387;28;20707;-83
2023/03/28 03:40:53;;;;;;;5.67;3.53;;;6.30;51.80;;;;;;5041477;28;21071;-85
2023/03/28 03:43:20;;;;;;;4.47;3.27;;;6.20;52.90;;;;;;5053139;28;20487;-85
2023/03/28 03:45:47;;;;;;;9.10;3.40;;;6.20;52.40;;;;;;5060112;28;20996;-86
2023/03/28 03:48:14;;;;;;;5.13;3.50;;;6.10;53.00;;;;;;5054523;28;20473;-86
2023/03/28 03:50:42;;;;;;;11.73;4.60;;;6.20;53.00;;;;;;5047019;28;20455;-86
2023/03/28 03:53:13;;;;;;;7.63;3.40;;;6.30;52.50;;;;;;5072079;28;21141;-86
2023/03/28 03:55:48;;;;;;;5.03;4.07;;;6.10;52.70;;;;;;5053894;28;20440;-84
2023/03/28 03:58:17;;;;;;;12.30;7.40;;;6.10;53.10;;;;;;5044865;28;20470;-86
2023/03/28 04:00:45;;;;;;;27.53;10.80;;;6.00;53.30;;;;;;5030271;28;20907;-86
2023/03/28 04:03:27;;;;;;;35.27;17.20;;;5.50;53.90;;;;;;5054709;28;20448;-85
2023/03/28 04:05:56;;;;;;;27.40;12.10;;;5.40;54.20;;;;;;5061666;28;20472;-84
2023/03/28 04:08:24;;;;;;;14.50;7.67;;;5.30;55.20;;;;;;5053877;28;20465;-84
2023/03/28 04:10:51;;;;;;;11.90;6.07;;;5.50;54.60;;;;;;5060264;28;20463;-86
2023/03/28 04:13:18;;;;;;;9.27;5.50;;;5.80;53.70;;;;;;5052971;28;20447;-85
2023/03/28 04:15:51;;;;;;;8.13;4.57;;;6.00;53.40;;;;;;5040718;28;20451;-84
2023/03/28 04:18:28;;;;;;;6.27;4.27;;;6.10;52.70;;;;;;5026560;28;20464;-84
2023/03/28 04:21:00;;;;;;;6.63;4.27;;;6.20;51.60;;;;;;5056310;28;20953;-82
2023/03/28 04:23:43;;;;;;;5.60;3.83;;;6.20;51.50;;;;;;5038628;28;20448;-83
2023/03/28 04:26:34;;;;;;;8.60;4.40;;;6.30;51.10;;;;;;5053178;28;20630;-86
2023/03/28 04:29:04;;;;;;;5.23;3.80;;;6.30;51.20;;;;;;5057840;28;20448;-83
2023/03/28 04:31:34;;;;;;;10.63;3.57;;;6.20;51.50;;;;;;5048924;28;20453;-87
2023/03/28 04:34:24;;;;;;;8.07;4.50;;;6.20;51.60;;;;;;5047033;28;20972;-85
2023/03/28 04:37:21;;;;;;;10.27;4.20;;;6.20;51.10;;;;;;5048307;28;20906;-85
2023/03/28 04:39:55;;;;;;;10.57;4.00;;;6.20;51.20;;;;;;5033019;28;20522;-85
2023/03/28 04:42:34;;;;;;;7.60;4.27;;;6.20;50.90;;;;;;5038438;28;20471;-85
2023/03/28 04:45:07;;;;;;;8.53;4.13;;;6.20;50.80;;;;;;5040976;28;20965;-83
2023/03/28 04:47:36;;;;;;;10.33;5.60;;;6.30;50.90;;;;;;5048415;28;20534;-84
2023/03/28 04:50:03;;;;;;;10.47;4.90;;;6.30;50.90;;;;;;5039824;28;20457;-84
2023/03/28 04:52:36;;;;;;;15.50;4.57;;;6.20;50.80;;;;;;5048924;28;20467;-85
2023/03/28 04:55:05;;;;;;;8.47;5.00;;;6.20;50.90;;;;;;5054058;28;20509;-84
2023/03/28 04:57:35;;;;;;;15.60;8.60;;;6.20;50.90;;;;;;5048405;28;20473;-85
2023/03/28 05:00:09;;;;;;;13.27;5.50;;;6.10;51.10;;;;;;5049579;28;20572;-84
2023/03/28 05:03:11;;;;;;;10.70;4.00;;;6.00;51.20;;;;;;5010321;28;20458;-86
2023/03/28 05:05:47;;;;;;;13.63;4.60;;;6.00;51.90;;;;;;5038002;28;20474;-84
2023/03/28 05:08:17;;;;;;;5.83;3.77;;;5.80;52.10;;;;;;5048080;28;20491;-85
2023/03/28 05:10:44;;;;;;;7.10;3.80;;;5.70;52.70;;;;;;5076222;28;20484;-86
2023/03/28 05:13:12;;;;;;;7.50;4.30;;;5.70;53.00;;;;;;5054867;28;20476;-84
2023/03/28 05:15:46;;;;;;;11.50;5.83;;;5.70;51.90;;;;;;5031999;28;20437;-85
2023/03/28 05:18:22;;;;;;;9.33;3.83;;;5.90;52.20;;;;;;5041357;28;21008;-83
2023/03/28 05:20:50;;;;;;;9.40;3.60;;;5.90;52.50;;;;;;5033965;28;21052;-86
2023/03/28 05:23:20;;;;;;;19.83;7.00;;;5.90;52.20;;;;;;5058278;28;21421;-85
2023/03/28 05:25:51;;;;;;;8.67;5.10;;;5.90;52.30;;;;;;5032182;28;20471;-85
2023/03/28 05:28:18;;;;;;;7.33;5.10;;;6.00;51.90;;;;;;5058597;28;20984;-87
2023/03/28 05:30:50;;;;;;;7.60;4.33;;;6.00;51.60;;;;;;5052112;28;20881;-85
2023/03/28 05:33:18;;;;;;;9.00;3.97;;;5.90;52.20;;;;;;5034260;28;20967;-85
2023/03/28 05:35:47;;;;;;;4.73;3.33;;;5.60;52.60;;;;;;5049866;28;20551;-85
2023/03/28 05:38:15;;;;;;;10.27;3.90;;;5.50;53.20;;;;;;5057381;28;21045;-84
2023/03/28 05:40:46;;;;;;;7.00;4.83;;;5.40;53.70;;;;;;5061925;28;20445;-85
2023/03/28 05:43:13;;;;;;;8.57;4.43;;;5.60;53.10;;;;;;5050613;28;21067;-84
2023/03/28 05:45:40;;;;;;;8.37;4.50;;;5.40;54.60;;;;;;5041443;28;20449;-84
2023/03/28 05:48:18;;;;;;;5.30;4.70;;;5.60;54.10;;;;;;5045481;28;20526;-84
2023/03/28 05:50:47;;;;;;;10.53;5.50;;;5.70;53.90;;;;;;5046714;28;20468;-85
2023/03/28 05:53:15;;;;;;;13.93;4.60;;;5.90;53.40;;;;;;5046672;28;21376;-83
2023/03/28 05:55:43;;;;;;;12.83;4.67;;;5.70;53.30;;;;;;5060123;28;20453;-83
2023/03/28 05:58:11;;;;;;;9.90;4.63;;;5.60;53.70;;;;;;5037618;28;20472;-85
2023/03/28 06:00:40;;;;;;;10.30;5.70;;;5.60;54.10;;;;;;5049461;28;20487;-85
2023/03/28 06:03:08;;;;;;;13.03;6.23;;;5.50;53.90;;;;;;5031522;28;20534;-85
2023/03/28 06:05:38;;;;;;;9.37;5.37;;;5.60;53.60;;;;;;5029485;28;20456;-83
2023/03/28 06:08:12;;;;;;;15.60;5.60;;;5.20;54.00;;;;;;5040264;28;20506;-85
2023/03/28 06:10:38;;;;;;;9.90;6.00;;;5.10;55.50;;;;;;5048602;28;20448;-85
2023/03/28 06:13:33;;;;;;;11.13;6.50;;;5.30;55.00;;;;;;5052684;28;20464;-85
2023/03/28 06:16:00;;;;;;;13.63;6.40;;;5.40;55.00;;;;;;5033154;28;20446;-85
2023/03/28 06:18:31;;;;;;;17.03;6.87;;;5.50;54.90;;;;;;5058481;28;20483;-85
2023/03/28 06:20:58;;;;;;;10.27;6.50;;;5.50;55.30;;;;;;5043311;28;20452;-85
2023/03/28 06:23:25;;;;;;;10.60;6.50;;;5.80;54.80;;;;;;5055620;28;20450;-83
2023/03/28 06:25:51;;;;;;;22.30;12.33;;;5.90;54.30;;;;;;5049289;28;20488;-85
2023/03/28 06:28:20;;;;;;;57.83;26.70;;;5.90;54.50;;;;;;5061244;28;20496;-84
2023/03/28 06:31:12;;;;;;;36.77;19.70;;;6.10;54.40;;;;;;5064741;28;20453;-86
2023/03/28 06:33:40;;;;;;;17.00;7.37;;;6.20;54.00;;;;;;5050538;28;20879;-83
2023/03/28 06:36:07;;;;;;;8.83;5.70;;;6.00;54.20;;;;;;5057714;28;20521;-85
2023/03/28 06:38:35;;;;;;;11.40;5.87;;;6.10;54.30;;;;;;5048109;28;21001;-84
2023/03/28 06:41:02;;;;;;;9.87;5.77;;;6.20;53.80;;;;;;5056553;28;20475;-85
2023/03/28 06:43:29;;;;;;;14.37;5.30;;;6.00;54.40;;;;;;5055134;28;20462;-85
2023/03/28 06:46:07;;;;;;;9.73;4.60;;;6.00;54.20;;;;;;5046954;28;20817;-84
2023/03/28 06:48:38;;;;;;;18.27;5.80;;;5.70;55.40;;;;;;5072568;28;20886;-85
2023/03/28 06:51:23;;;;;;;7.10;4.20;;;5.70;55.90;;;;;;5042623;28;20852;-85
2023/03/28 06:53:50;;;;;;;4.60;3.90;;;5.50;56.10;;;;;;5047557;28;20448;-84
2023/03/28 06:56:23;;;;;;;6.93;4.10;;;5.60;56.40;;;;;;5028526;28;20849;-86
2023/03/28 06:58:50;;;;;;;10.23;5.00;;;5.60;56.00;;;;;;5063938;28;20528;-86
2023/03/28 07:01:22;;;;;;;5.43;3.47;;;5.80;56.00;;;;;;5057077;28;20816;-84
2023/03/28 07:04:05;;;;;;;5.30;3.87;;;5.60;56.40;;;;;;5047147;28;20996;-85
2023/03/28 07:06:34;;;;;;;10.60;5.30;;;5.60;56.60;;;;;;5039526;28;20464;-86
2023/03/28 07:09:01;;;;;;;5.70;3.90;;;5.80;56.20;;;;;;5040365;28;20476;-85
2023/03/28 07:11:40;;;;;;;8.03;4.10;;;5.90;56.30;;;;;;5039245;28;21959;-85
2023/03/28 07:14:07;;;;;;;12.00;3.70;;;5.90;56.00;;;;;;5057437;28;20470;-84
2023/03/28 07:16:34;;;;;;;9.43;3.83;;;5.90;56.10;;;;;;5023228;28;20596;-85
2023/03/28 07:19:01;;;;;;;7.37;3.70;;;6.00;56.10;;;;;;5056686;28;20452;-85
2023/03/28 07:21:34;;;;;;;6.07;4.40;;;6.10;56.10;;;;;;5062406;28;20443;-84
2023/03/28 07:24:03;;;;;;;5.47;4.13;;;6.00;55.70;;;;;;5042514;28;20505;-85
2023/03/28 07:26:43;;;;;;;4.67;3.50;;;6.00;55.80;;;;;;5063310;28;20479;-85
2023/03/28 07:29:10;;;;;;;8.23;3.67;;;6.20;55.80;;;;;;5061265;28;20471;-83
2023/03/28 07:31:37;;;;;;;9.80;3.27;;;6.20;55.90;;;;;;5044459;28;20485;-84
2023/03/28 07:34:04;;;;;;;6.70;3.73;;;6.20;55.70;;;;;;5046740;28;20449;-85
2023/03/28 07:36:31;;;;;;;12.23;3.90;;;6.10;56.30;;;;;;5037367;28;20444;-86
2023/03/28 07:39:09;;;;;;;11.30;4.63;;;6.20;56.30;;;;;;5039396;28;20458;-85
2023/03/28 07:41:36;;;;;;;6.00;3.57;;;6.50;55.80;;;;;;5044537;28;20456;-83
2023/03/28 07:44:03;;;;;;;6.73;3.80;;;6.60;55.30;;;;;;5027344;28;20447;-86
2023/03/28 07:46:31;;;;;;;5.93;3.30;;;6.60;54.80;;;;;;5021831;28;20469;-86
2023/03/28 07:48:59;;;;;;;5.73;2.90;;;6.60;54.50;;;;;;5044713;28;20563;-85
2023/03/28 07:51:26;;;;;;;7.07;3.50;;;6.30;54.30;;;;;;5025256;28;20991;-85
2023/03/28 07:53:53;;;;;;;8.33;3.30;;;6.20;54.20;;;;;;5056959;28;20449;-84
2023/03/28 07:56:22;;;;;;;7.13;3.27;;;6.40;54.70;;;;;;5040767;28;20945;-84
2023/03/28 07:59:15;;;;;;;6.40;3.60;;;6.50;54.30;;;;;;5045934;28;20479;-86
2023/03/28 08:01:45;;;;;;;6.20;3.30;;;6.50;54.40;;;;;;5025017;28;21057;-85
2023/03/28 08:04:13;;;;;;;7.10;2.80;;;6.50;53.90;;;;;;5033487;28;20436;-83
2023/03/28 08:06:57;;;;;;;7.90;2.67;;;6.40;54.30;;;;;;5044060;28;20474;-86
2023/03/28 08:09:23;;;;;;;6.80;3.07;;;6.60;54.40;;;;;;5028996;28;20453;-85
2023/03/28 08:12:04;;;;;;;12.47;2.83;;;6.90;53.70;;;;;;5057650;28;20583;-85
2023/03/28 08:14:31;;;;;;;7.27;3.23;;;6.90;53.70;;;;;;5039192;28;20868;-85
2023/03/28 08:16:58;;;;;;;5.73;2.33;;;7.10;52.90;;;;;;5042107;28;20909;-85
2023/03/28 08:19:25;;;;;;;16.10;2.97;;;7.30;52.90;;;;;;5063048;28;20456;-85
2023/03/28 08:22:16;;;;;;;3.50;2.50;;;7.50;53.30;;;;;;5071679;28;20448;-84
2023/03/28 08:24:48;;;;;;;12.40;2.53;;;7.40;51.70;;;;;;5047726;28;20464;-85
2023/03/28 08:27:22;;;;;;;7.07;2.10;;;7.70;52.10;;;;;;5048539;28;20468;-86
2023/03/28 08:29:53;;;;;;;6.33;2.10;;;7.90;52.00;;;;;;5058698;28;20462;-85
2023/03/28 08:32:20;;;;;;;5.73;2.27;;;8.00;50.60;;;;;;5049968;28;21048;-83
2023/03/28 08:34:47;;;;;;;5.30;2.00;;;8.10;50.00;;;;;;5044105;28;20440;-86
2023/03/28 08:37:17;;;;;;;2.20;2.10;;;8.30;49.40;;;;;;5040216;28;20543;-84
2023/03/28 08:39:47;;;;;;;4.33;2.20;;;8.30;49.30;;;;;;5055844;28;20924;-85
2023/03/28 08:42:43;;;;;;;8.10;2.70;;;8.30;49.00;;;;;;5050487;28;20835;-85
2023/03/28 08:45:25;;;;;;;9.10;2.40;;;8.20;49.00;;;;;;5050514;28;20444;-84
2023/03/28 08:48:16;;;;;;;5.83;2.30;;;8.20;47.70;;;;;;5058416;28;20479;-84
2023/03/28 08:50:46;;;;;;;6.33;2.43;;;8.30;47.20;;;;;;5038994;28;20478;-86
2023/03/28 08:53:19;;;;;;;2.23;2.00;;;8.30;48.10;;;;;;5032039;28;20471;-85
2023/03/28 08:55:47;;;;;;;3.87;1.50;;;8.50;46.60;;;;;;5059869;28;20946;-85
2023/03/28 08:58:20;;;;;;;3.03;1.77;;;8.80;45.70;;;;;;5045469;28;20540;-85
2023/03/28 09:00:49;;;;;;;6.50;1.70;;;8.80;45.10;;;;;;5022284;28;20447;-84
2023/03/28 09:03:20;;;;;;;9.20;2.20;;;8.90;45.90;;;;;;5040977;28;20480;-82
2023/03/28 09:05:49;;;;;;;4.77;2.10;;;9.00;44.90;;;;;;5054896;28;20451;-83
2023/03/28 09:08:32;;;;;;;5.07;1.77;;;9.20;44.70;;;;;;5042438;28;20468;-83
2023/03/28 09:11:05;;;;;;;6.57;1.90;;;9.60;44.30;;;;;;5040082;28;20464;-86
2023/03/28 09:13:46;;;;;;;6.60;1.53;;;9.50;43.00;;;;;;5072677;28;20824;-86
2023/03/28 09:16:27;;;;;;;2.73;1.83;;;9.70;44.30;;;;;;5032503;28;20447;-84
2023/03/28 09:19:26;;;;;;;2.73;1.80;;;9.90;44.80;;;;;;5063735;28;20497;-85
2023/03/28 09:22:09;;;;;;;4.83;1.50;;;10.10;42.90;;;;;;5049019;28;20553;-85
2023/03/28 09:24:59;;;;;;;2.80;1.57;;;10.20;41.10;;;;;;5039446;28;20471;-85
2023/03/28 09:27:34;;;;;;;2.47;1.70;;;10.20;40.20;;;;;;5013646;28;20997;-85
2023/03/28 09:30:17;;;;;;;3.97;1.10;;;10.00;39.60;;;;;;5041498;28;20452;-84
2023/03/28 09:32:45;;;;;;;4.03;1.60;;;10.20;40.90;;;;;;5043022;28;20753;-85
2023/03/28 09:35:16;;;;;;;2.97;1.83;;;10.10;39.90;;;;;;5063165;28;20449;-85
2023/03/28 09:37:48;;;;;;;4.97;1.43;;;10.30;40.50;;;;;;5029804;28;20491;-85
2023/03/28 09:40:21;;;;;;;1.23;1.07;;;10.60;38.80;;;;;;5025764;28;20502;-85
2023/03/28 09:43:13;;;;;;;4.03;1.20;;;10.60;37.10;;;;;;5047837;28;20469;-85
2023/03/28 09:46:15;;;;;;;6.70;1.93;;;10.10;35.60;;;;;;5030483;28;20820;-86
2023/03/28 09:48:54;;;;;;;2.30;1.10;;;10.30;35.80;;;;;;5045912;28;20460;-87
2023/03/28 09:51:25;;;;;;;1.57;1.13;;;10.40;36.10;;;;;;5044051;28;20445;-85
2023/03/28 09:53:53;;;;;;;3.90;1.20;;;10.60;36.90;;;;;;5039378;28;20895;-86
2023/03/28 09:56:26;;;;;;;1.50;1.27;;;10.90;36.30;;;;;;5022624;28;20797;-84
2023/03/28 09:58:55;;;;;;;2.20;1.70;;;11.20;36.60;;;;;;5031569;28;20474;-85
2023/03/28 10:01:40;;;;;;;9.80;1.80;;;10.90;33.30;;;;;;5030751;28;20776;-87
2023/03/28 10:04:33;;;;;;;1.30;1.20;;;10.90;35.00;;;;;;5044969;28;20466;-84
2023/03/28 10:07:29;;;;;;;2.87;1.80;;;10.50;32.60;;;;;;5064675;28;20499;-86
2023/03/28 10:10:17;;;;;;;5.80;2.47;;;10.20;33.40;;;;;;5041825;28;20457;-86
2023/03/28 10:12:47;;;;;;;5.00;1.70;;;10.30;33.90;;;;;;5044014;28;20927;-86
2023/03/28 10:15:31;;;;;;;3.57;1.13;;;10.50;34.90;;;;;;5059103;28;20448;-84
2023/03/28 10:18:20;;;;;;;1.40;1.10;;;10.90;33.00;;;;;;5062718;28;20545;-86
2023/03/28 10:21:05;;;;;;;2.80;1.47;;;11.40;33.90;;;;;;5042476;28;20933;-84
2023/03/28 10:23:32;;;;;;;3.30;1.13;;;11.70;32.90;;;;;;5037144;28;20534;-87
2023/03/28 10:26:02;;;;;;;2.53;1.53;;;11.80;32.00;;;;;;5072548;28;20459;-86
2023/03/28 10:28:32;;;;;;;5.73;1.80;;;12.00;32.80;;;;;;5072145;28;20488;-85
2023/03/28 10:31:01;;;;;;;3.50;1.37;;;12.20;32.00;;;;;;5069782;28;20452;-86
2023/03/28 10:33:35;;;;;;;2.27;1.80;;;12.50;31.90;;;;;;5044326;28;20822;-84
2023/03/28 10:36:27;;;;;;;6.03;1.30;;;12.50;32.70;;;;;;5040512;28;20459;-86
2023/03/28 10:38:55;;;;;;;3.67;1.20;;;12.40;30.50;;;;;;5045626;28;20449;-86
2023/03/28 10:42:02;;;;;;;3.03;1.87;;;12.00;31.00;;;;;;5054111;28;20466;-85
2023/03/28 10:44:59;;;;;;;1.67;1.20;;;11.60;31.10;;;;;;5056994;28;20447;-84
2023/03/28 10:47:26;;;;;;;1.63;1.10;;;11.40;30.90;;;;;;5061654;28;20911;-87
2023/03/28 10:50:27;;;;;;;2.40;1.53;;;11.50;30.60;;;;;;5052389;28;20476;-87
2023/03/28 10:53:09;;;;;;;1.67;1.33;;;11.70;30.50;;;;;;5057631;28;20961;-86
2023/03/28 10:55:41;;;;;;;1.33;1.23;;;11.70;30.50;;;;;;5070700;28;20455;-84
2023/03/28 10:58:26;;;;;;;1.10;1.00;;;11.60;32.40;;;;;;5046679;28;21016;-84
2023/03/28 11:01:03;;;;;;;6.10;1.63;;;11.70;33.10;;;;;;5064316;28;20872;-85
2023/03/28 11:03:58;;;;;;;3.60;1.53;;;11.90;31.50;;;;;;5027532;28;20443;-86
2023/03/28 11:06:32;;;;;;;5.73;1.80;;;11.80;32.40;;;;;;5045799;28;20933;-85
2023/03/28 11:09:07;;;;;;;1.57;1.27;;;12.00;32.10;;;;;;5030207;28;20468;-87
2023/03/28 11:12:04;;;;;;;4.13;2.20;;;12.30;32.00;;;;;;5046919;28;20526;-86
2023/03/28 11:14:47;;;;;;;6.10;1.37;;;12.50;31.60;;;;;;5028284;28;20536;-86
2023/03/28 11:17:21;;;;;;;3.30;1.90;;;13.00;31.40;;;;;;5065043;28;20849;-88
2023/03/28 11:20:24;;;;;;;2.77;1.60;;;13.30;31.40;;;;;;5045464;28;20451;-85
2023/03/28 11:23:19;;;;;;;2.13;1.20;;;13.20;29.90;;;;;;5062475;28;20448;-87
2023/03/28 11:26:09;;;;;;;4.40;1.60;;;12.70;30.40;;;;;;5037619;28;20550;-86
2023/03/28 11:29:08;;;;;;;2.90;1.50;;;12.80;32.40;;;;;;5043037;28;20546;-86
2023/03/28 11:31:40;;;;;;;3.00;1.43;;;13.30;32.00;;;;;;5069472;28;20519;-85
2023/03/28 11:34:17;;;;;;;2.63;1.30;;;13.60;29.80;;;;;;5059514;28;20505;-87
2023/03/28 11:36:52;;;;;;;3.57;1.20;;;13.90;28.50;;;;;;5055909;28;20480;-86
2023/03/28 11:39:28;;;;;;;3.90;1.27;;;14.10;27.40;;;;;;5021360;28;20504;-87
2023/03/28 11:41:59;;;;;;;2.27;1.63;;;13.90;27.40;;;;;;5055036;28;20565;-87
2023/03/28 11:44:41;;;;;;;3.00;1.17;;;13.80;27.70;;;;;;5037172;28;20463;-86
2023/03/28 11:47:13;;;;;;;2.30;1.07;;;13.50;27.90;;;;;;5053516;28;20475;-85
2023/03/28 11:49:46;;;;;;;1.30;1.20;;;13.70;28.60;;;;;;5042881;28;20468;-87
2023/03/28 11:52:40;;;;;;;3.13;1.40;;;14.00;27.60;;;;;;5057055;28;20501;-85
2023/03/28 11:55:19;;;;;;;2.60;1.00;;;14.10;27.40;;;;;;5045441;28;21015;-86
2023/03/28 11:57:53;;;;;;;4.20;1.40;;;14.00;27.30;;;;;;5042358;28;20467;-86
2023/03/28 12:00:27;;;;;;;1.87;0.80;;;14.20;27.40;;;;;;5030393;28;20966;-86
2023/03/28 12:03:10;;;;;;;2.03;1.20;;;14.10;27.40;;;;;;5023181;28;20444;-87
2023/03/28 12:05:46;;;;;;;4.63;1.53;;;14.00;27.60;;;;;;5020483;28;20539;-87
2023/03/28 12:08:20;;;;;;;4.03;1.23;;;13.90;27.40;;;;;;5029147;28;20467;-86
2023/03/28 12:10:51;;;;;;;2.63;1.17;;;14.40;28.30;;;;;;5026953;28;20463;-85
2023/03/28 12:13:32;;;;;;;5.33;1.30;;;15.00;27.50;;;;;;5052813;28;20891;-87
2023/03/28 12:16:08;;;;;;;6.83;1.33;;;15.20;26.70;;;;;;5046029;28;20841;-87
2023/03/28 12:18:43;;;;;;;2.20;1.10;;;15.00;27.50;;;;;;5049161;28;20841;-87
2023/03/28 12:21:23;;;;;;;3.50;1.27;;;14.80;26.90;;;;;;5055706;28;21044;-86
2023/03/28 12:24:03;;;;;;;2.70;1.30;;;15.20;27.30;;;;;;5026354;28;20459;-87
2023/03/28 12:26:56;;;;;;;4.20;1.50;;;15.30;26.70;;;;;;5020582;28;20808;-87
2023/03/28 12:29:31;;;;;;;5.10;1.40;;;15.40;26.60;;;;;;5046261;28;20464;-86
2023/03/28 12:32:04;;;;;;;2.17;1.10;;;15.40;27.60;;;;;;5028948;28;20452;-86
2023/03/28 12:34:37;;;;;;;5.03;1.33;;;15.40;26.50;;;;;;5050603;28;20479;-85
2023/03/28 12:37:24;;;;;;;2.40;1.30;;;15.30;27.20;;;;;;5062554;28;20799;-87
2023/03/28 12:39:57;;;;;;;5.13;1.27;;;15.10;26.70;;;;;;5044205;28;20441;-86
2023/03/28 12:42:29;;;;;;;5.20;1.40;;;15.00;27.30;;;;;;5042738;28;20867;-85
2023/03/28 12:45:00;;;;;;;2.00;1.73;;;15.00;26.40;;;;;;5025389;28;20539;-87
2023/03/28 12:47:31;;;;;;;2.30;1.20;;;14.60;27.30;;;;;;5048486;28;20479;-84
2023/03/28 12:50:02;;;;;;;1.73;1.07;;;14.70;27.30;;;;;;5075357;28;20551;-87
2023/03/28 12:52:32;;;;;;;3.93;1.20;;;14.80;27.50;;;;;;5058086;28;20447;-84
2023/03/28 12:55:02;;;;;;;3.23;1.40;;;14.40;26.50;;;;;;5051446;28;20451;-87
2023/03/28 12:57:45;;;;;;;2.97;1.20;;;13.90;27.40;;;;;;5049903;28;20504;-86
2023/03/28 13:00:28;;;;;;;1.50;1.00;;;13.90;28.70;;;;;;5060489;28;20451;-86
2023/03/28 13:03:26;;;;;;;3.13;0.90;;;14.50;27.90;;;;;;5051789;28;20580;-85
2023/03/28 13:05:58;;;;;;;2.37;1.30;;;14.70;26.90;;;;;;5051240;28;20506;-86
2023/03/28 13:08:36;;;;;;;2.20;1.17;;;14.60;27.90;;;;;;5050305;28;20989;-85
2023/03/28 13:11:09;;;;;;;4.90;1.10;;;14.40;26.50;;;;;;5060058;28;20870;-86
2023/03/28 13:13:47;;;;;;;2.03;1.00;;;14.50;27.60;;;;;;5022237;28;20449;-84
2023/03/28 13:16:15;;;;;;;5.80;1.40;;;14.70;26.90;;;;;;5046887;28;20436;-86
2023/03/28 13:18:46;;;;;;;5.57;1.33;;;14.80;27.60;;;;;;5030284;28;20511;-87
2023/03/28 13:21:41;;;;;;;1.80;0.90;;;15.00;26.70;;;;;;5025479;28;20540;-86
2023/03/28 13:24:29;;;;;;;2.60;1.10;;;15.20;25.50;;;;;;5063473;28;20476;-86
2023/03/28 13:26:59;;;;;;;2.30;1.10;;;15.40;25.80;;;;;;5049181;28;20460;-86
2023/03/28 13:29:44;;;;;;;4.53;1.20;;;15.70;26.60;;;;;;5065970;28;20526;-86
2023/03/28 13:32:15;;;;;;;1.20;1.10;;;15.60;26.40;;;;;;5059733;28;20440;-87
2023/03/28 13:34:48;;;;;;;1.90;1.10;;;15.70;26.60;;;;;;5072177;28;20482;-87
2023/03/28 13:37:20;;;;;;;2.77;1.20;;;15.90;26.60;;;;;;5050743;28;20491;-86